Skip to Main Content
SEARCH:
Location Air RH Dwp Precip Type Wind Speed Wind Gust Direction Pavement Temperature Date/Time
Hatem Bridge US 40 E/B 59 80 53 None 7 mph 9 mph S 75 - 75 2/23/2017 1:29:00 PM
I-270 at I-370 74 45 52 None Calm 9 mph S 86 - 94 2/23/2017 1:25:00 PM
I-270 at MD-109 76 46 54 None 4 mph 12 mph E 90 - 90 2/23/2017 1:25:00 PM
I-495 at American Legion Bridge 75 50 55 None 7 mph 13 mph S 91 - 95 2/23/2017 1:25:00 PM
I-68 at MD-219 55 96 54 None 13 mph 22 mph SW 62 - 63 2/23/2017 1:25:00 PM
I-68 at Savage Mt - - - No Data Available - - No Data Available -
I-68 at Sideling Hill 71 55 54 None 12 mph 26 mph S 92 - 93 2/23/2017 1:25:00 PM
I-68 at WV Line 60 78 54 None 8 mph 15 mph W 73 - 73 2/23/2017 1:25:00 PM
I-695 at I-83 73 51 54 None 6 mph 14 mph S 83 - 87 2/23/2017 1:25:00 PM
I-70 at Fred-Wash Co. 70 57 54 None Calm 4 mph S 85 - 85 2/23/2017 1:25:00 PM
I-70 at I-695 76 46 54 None 5 mph 14 mph SW 80 - 93 2/23/2017 1:25:00 PM
I-70 at I-81 73 50 53 None 5 mph 11 mph S 87 - 87 2/23/2017 1:25:00 PM
I-70 at MD-27 74 49 53 None 4 mph 12 mph W 92 - 93 2/23/2017 1:25:00 PM
I-70 at MD-32 74 47 53 None 6 mph 14 mph SW 86 - 94 2/23/2017 1:25:00 PM
I-83 at MD-137 74 52 55 None Calm 10 mph SW 87 - 87 2/23/2017 1:25:00 PM
I-895 at I-95 - - - No Data Available - - No Data Available -
I-95 at I-695 NE 68 60 54 None Calm 8 mph SE 83 - 90 2/23/2017 1:29:00 PM
I-95 at Patuxent River 75 49 55 None 8 mph 16 mph SW 89 - 90 2/23/2017 1:25:00 PM
I-95 at Tydings Bridge 66 64 54 None 5 mph 11 mph SE 80 - 83 2/23/2017 1:25:00 PM
I-95/495 at I-295 69 61 56 None 6 mph 10 mph SW 89 - 90 2/23/2017 1:25:00 PM
I-97 at MD-100 75 46 53 None 6 mph 14 mph W 87 - 90 2/23/2017 1:25:00 PM
I-97 at MD-32 74 46 53 None 4 mph 11 mph W 81 - 92 2/23/2017 1:25:00 PM
MD 20 at MD 21 68 64 55 None 6 mph 10 mph S 97 - 97 2/23/2017 1:25:00 PM
MD 231 at Patuxent River 73 55 56 None 9 mph 17 mph SW 87 - 90 2/23/2017 1:25:00 PM
MD 260 at Cox Rd 69 61 55 None Calm 9 mph S 88 - 88 2/23/2017 1:25:00 PM
MD-135 at Salt Dome 60 78 53 None 7 mph 18 mph SW 70 - 70 2/23/2017 1:25:00 PM
MD-140 at MD-97 72 52 54 None 8 mph 15 mph SW 88 - 88 2/23/2017 1:25:00 PM
MD-200 EB at Bonifant Rd 73 52 54 None 4 mph 5 mph SE 79 - 90 2/23/2017 1:28:00 PM
MD-200 WB at Muncaster Mill Rd 74 46 52 None 7 mph 14 mph SW 91 - 92 2/23/2017 1:28:00 PM
MD-213 at Sassafras River 69 66 57 None 8 mph 13 mph SW 89 - 89 2/23/2017 1:25:00 PM
MD-24 at Rock St Park 70 58 55 None Calm 7 mph N 71 - 71 2/23/2017 1:25:00 PM
MD-30 at PA Line 70 57 54 None 8 mph 16 mph S 84 - 84 2/23/2017 1:25:00 PM
MD-301 at MD-305 69 59 55 None 9 mph 14 mph SW 94 - 94 2/23/2017 1:25:00 PM
MD-33 at Knapps Narrows Drawbridge 67 66 55 None 6 mph 13 mph S 96 - 96 2/23/2017 1:25:00 PM
MD-344 at MD-224 73 54 55 None Calm 6 mph SE 84 - 84 2/23/2017 1:25:00 PM
MD-4 at Patuxent River 71 61 57 None - - No Data Available 83 - 83 2/23/2017 1:25:00 PM
MD-404 at Choptank River 71 55 55 None 10 mph 18 mph SW 90 - 93 2/23/2017 1:25:00 PM
MD-43 at MD-150 63 74 55 None 5 mph 12 mph S 85 - 91 2/23/2017 1:25:00 PM
MD-51 at Oldtown Salt Dome 74 49 53 None 7 mph 12 mph W 93 - 93 2/23/2017 1:25:00 PM
MD-64 at MD-418 - - - No Data Available - - No Data Available -
US-1 at Baltimore / Harford Co. Line 69 61 55 None 5 mph 9 mph S 85 - 87 2/23/2017 1:25:00 PM
US-1 at Conowingo Dam 66 68 55 None 5 mph 11 mph SE 87 - 87 2/23/2017 1:25:00 PM
US-13 at US-113 69 55 52 None 14 mph 24 mph SW 110 - 92 2/23/2017 1:25:00 PM
US-13 at US-50 - - - No Data Available - - No Data Available -
US-15 at MD-140 73 52 54 None 7 mph 12 mph SE 87 - 90 2/23/2017 1:25:00 PM
US-301 at MD-5 71 56 55 None 12 mph 19 mph S 89 - 91 2/23/2017 1:25:00 PM
US-301 at Potomac 72 57 56 None Calm 5 mph S 87 - 89 2/23/2017 1:25:00 PM
US-301 on HWN Bridge 69 58 54 None 6 mph 7 mph S 80 - 80 2/23/2017 1:27:00 PM
US-340 at MD-180 73 50 54 None 7 mph 15 mph S 90 - 91 2/23/2017 1:25:00 PM
US-50 at Choptank 62 78 55 None 7 mph 13 mph S 81 - 84 2/23/2017 1:25:00 PM
US-50 at I-95 74 50 55 None 6 mph 16 mph SW 87 - 90 2/23/2017 1:25:00 PM
US-50 at MD-2 67 64 55 None 6 mph 13 mph SE 62 - 87 2/23/2017 1:25:00 PM
US-50 at MD-331 68 64 55 None 9 mph 16 mph S 87 - 89 2/23/2017 1:25:00 PM
US-50 at OC Drawbridge 59 75 51 None 5 mph 11 mph SW 84 - 84 2/23/2017 1:25:00 PM
US-50 at Table Rock Rd 58 84 53 None 5 mph 16 mph SW 71 - 71 2/23/2017 1:25:00 PM
US-50 Kent Narrow Bridge 59 82 54 None 8 mph 14 mph SE 78 - 84 2/23/2017 1:25:00 PM
WPL Pier 31 63 71 53 None Calm 7 mph NE 81 - 81 2/23/2017 1:28:00 PM
Location Air RH Dwp Precip Type Wind Speed Wind Gust Direction Pavement Temperature Date/Time